sensor_id;sensor_type;location;lat;lon;timestamp;P1;durP1;ratioP1;P2;durP2;ratioP2
46719;SDS011;32452;51.382;-0.002;2023-04-24T00:01:28;51.40;;;29.30;;
46719;SDS011;32452;51.382;-0.002;2023-04-24T00:04:30;57.90;;;32.45;;
46719;SDS011;32452;51.382;-0.002;2023-04-24T00:07:24;51.60;;;30.08;;
46719;SDS011;32452;51.382;-0.002;2023-04-24T00:10:09;50.55;;;29.05;;
46719;SDS011;32452;51.382;-0.002;2023-04-24T00:12:56;50.97;;;29.08;;
46719;SDS011;32452;51.382;-0.002;2023-04-24T00:15:55;51.42;;;29.92;;
46719;SDS011;32452;51.382;-0.002;2023-04-24T00:18:42;49.50;;;30.52;;
46719;SDS011;32452;51.382;-0.002;2023-04-24T00:21:38;47.53;;;28.70;;
46719;SDS011;32452;51.382;-0.002;2023-04-24T00:24:24;45.95;;;28.13;;
46719;SDS011;32452;51.382;-0.002;2023-04-24T00:27:19;46.05;;;27.55;;
46719;SDS011;32452;51.382;-0.002;2023-04-24T00:30:14;48.63;;;29.65;;
46719;SDS011;32452;51.382;-0.002;2023-04-24T00:33:04;47.97;;;26.35;;
46719;SDS011;32452;51.382;-0.002;2023-04-24T00:36:38;51.33;;;28.05;;
46719;SDS011;32452;51.382;-0.002;2023-04-24T00:39:24;45.85;;;28.40;;
46719;SDS011;32452;51.382;-0.002;2023-04-24T00:42:09;43.05;;;25.85;;
46719;SDS011;32452;51.382;-0.002;2023-04-24T00:44:56;45.78;;;26.40;;
46719;SDS011;32452;51.382;-0.002;2023-04-24T00:47:42;45.65;;;26.05;;
46719;SDS011;32452;51.382;-0.002;2023-04-24T00:50:28;40.85;;;24.98;;
46719;SDS011;32452;51.382;-0.002;2023-04-24T00:53:14;43.60;;;25.98;;
46719;SDS011;32452;51.382;-0.002;2023-04-24T00:55:59;41.88;;;25.30;;
46719;SDS011;32452;51.382;-0.002;2023-04-24T00:58:45;43.25;;;24.48;;
46719;SDS011;32452;51.382;-0.002;2023-04-24T01:01:32;42.15;;;24.73;;
46719;SDS011;32452;51.382;-0.002;2023-04-24T01:04:18;37.05;;;22.73;;
46719;SDS011;32452;51.382;-0.002;2023-04-24T01:07:04;36.55;;;23.83;;
46719;SDS011;32452;51.382;-0.002;2023-04-24T01:09:55;34.53;;;21.38;;
46719;SDS011;32452;51.382;-0.002;2023-04-24T01:12:41;46.40;;;25.77;;
46719;SDS011;32452;51.382;-0.002;2023-04-24T01:15:26;43.15;;;23.88;;
46719;SDS011;32452;51.382;-0.002;2023-04-24T01:18:12;38.75;;;22.92;;
46719;SDS011;32452;51.382;-0.002;2023-04-24T01:20:58;38.20;;;23.95;;
46719;SDS011;32452;51.382;-0.002;2023-04-24T01:23:48;39.33;;;23.55;;
46719;SDS011;32452;51.382;-0.002;2023-04-24T01:26:34;43.78;;;24.38;;
46719;SDS011;32452;51.382;-0.002;2023-04-24T01:29:19;39.95;;;23.63;;
46719;SDS011;32452;51.382;-0.002;2023-04-24T01:32:05;41.15;;;24.27;;
46719;SDS011;32452;51.382;-0.002;2023-04-24T01:34:51;37.60;;;23.60;;
46719;SDS011;32452;51.382;-0.002;2023-04-24T01:37:36;35.28;;;22.20;;
46719;SDS011;32452;51.382;-0.002;2023-04-24T01:40:22;38.38;;;23.10;;
46719;SDS011;32452;51.382;-0.002;2023-04-24T01:43:08;36.60;;;22.20;;
46719;SDS011;32452;51.382;-0.002;2023-04-24T01:45:53;37.10;;;23.95;;
46719;SDS011;32452;51.382;-0.002;2023-04-24T01:48:39;41.42;;;24.38;;
46719;SDS011;32452;51.382;-0.002;2023-04-24T01:51:24;38.80;;;23.80;;
46719;SDS011;32452;51.382;-0.002;2023-04-24T01:54:12;42.28;;;24.40;;
46719;SDS011;32452;51.382;-0.002;2023-04-24T01:56:57;41.92;;;23.77;;
46719;SDS011;32452;51.382;-0.002;2023-04-24T01:59:45;41.47;;;24.13;;
46719;SDS011;32452;51.382;-0.002;2023-04-24T02:02:31;38.72;;;23.63;;
46719;SDS011;32452;51.382;-0.002;2023-04-24T02:05:17;41.05;;;24.27;;
46719;SDS011;32452;51.382;-0.002;2023-04-24T02:08:02;36.65;;;22.92;;
46719;SDS011;32452;51.382;-0.002;2023-04-24T02:10:48;38.08;;;23.38;;
46719;SDS011;32452;51.382;-0.002;2023-04-24T02:13:33;41.67;;;22.73;;
46719;SDS011;32452;51.382;-0.002;2023-04-24T02:16:19;43.53;;;25.15;;
46719;SDS011;32452;51.382;-0.002;2023-04-24T02:19:05;39.05;;;22.83;;
46719;SDS011;32452;51.382;-0.002;2023-04-24T02:21:50;38.88;;;22.88;;
46719;SDS011;32452;51.382;-0.002;2023-04-24T02:24:36;43.33;;;23.40;;
46719;SDS011;32452;51.382;-0.002;2023-04-24T02:27:21;38.25;;;22.95;;
46719;SDS011;32452;51.382;-0.002;2023-04-24T02:30:07;40.90;;;23.20;;
46719;SDS011;32452;51.382;-0.002;2023-04-24T02:32:53;38.47;;;22.27;;
46719;SDS011;32452;51.382;-0.002;2023-04-24T02:35:39;38.78;;;24.00;;
46719;SDS011;32452;51.382;-0.002;2023-04-24T02:38:24;39.38;;;24.27;;
46719;SDS011;32452;51.382;-0.002;2023-04-24T02:41:10;40.17;;;24.02;;
46719;SDS011;32452;51.382;-0.002;2023-04-24T02:43:55;39.97;;;23.77;;
46719;SDS011;32452;51.382;-0.002;2023-04-24T02:46:41;38.58;;;22.65;;
46719;SDS011;32452;51.382;-0.002;2023-04-24T02:49:26;41.90;;;22.10;;
46719;SDS011;32452;51.382;-0.002;2023-04-24T02:52:12;43.72;;;23.60;;
46719;SDS011;32452;51.382;-0.002;2023-04-24T02:54:59;37.17;;;22.35;;
46719;SDS011;32452;51.382;-0.002;2023-04-24T02:57:45;40.47;;;23.73;;
46719;SDS011;32452;51.382;-0.002;2023-04-24T03:00:30;40.10;;;23.67;;
46719;SDS011;32452;51.382;-0.002;2023-04-24T03:03:15;34.70;;;21.83;;
46719;SDS011;32452;51.382;-0.002;2023-04-24T03:06:02;35.47;;;21.00;;
46719;SDS011;32452;51.382;-0.002;2023-04-24T03:08:47;36.30;;;21.27;;
46719;SDS011;32452;51.382;-0.002;2023-04-24T03:11:33;32.92;;;20.95;;
46719;SDS011;32452;51.382;-0.002;2023-04-24T03:14:18;36.58;;;21.20;;
46719;SDS011;32452;51.382;-0.002;2023-04-24T03:17:04;32.65;;;20.52;;
46719;SDS011;32452;51.382;-0.002;2023-04-24T03:19:50;34.50;;;21.20;;
46719;SDS011;32452;51.382;-0.002;2023-04-24T03:22:35;35.47;;;21.13;;
46719;SDS011;32452;51.382;-0.002;2023-04-24T03:25:20;35.72;;;21.05;;
46719;SDS011;32452;51.382;-0.002;2023-04-24T03:28:06;37.85;;;22.08;;
46719;SDS011;32452;51.382;-0.002;2023-04-24T03:30:52;36.40;;;22.67;;
46719;SDS011;32452;51.382;-0.002;2023-04-24T03:33:37;35.10;;;20.85;;
46719;SDS011;32452;51.382;-0.002;2023-04-24T03:36:23;33.42;;;20.80;;
46719;SDS011;32452;51.382;-0.002;2023-04-24T03:39:08;37.95;;;22.63;;
46719;SDS011;32452;51.382;-0.002;2023-04-24T03:41:54;37.90;;;21.27;;
46719;SDS011;32452;51.382;-0.002;2023-04-24T03:44:39;35.13;;;20.92;;
46719;SDS011;32452;51.382;-0.002;2023-04-24T03:47:25;35.00;;;21.10;;
46719;SDS011;32452;51.382;-0.002;2023-04-24T03:50:10;32.40;;;20.17;;
46719;SDS011;32452;51.382;-0.002;2023-04-24T03:52:57;34.80;;;20.67;;
46719;SDS011;32452;51.382;-0.002;2023-04-24T03:55:43;33.97;;;21.58;;
46719;SDS011;32452;51.382;-0.002;2023-04-24T03:58:29;36.03;;;21.98;;
46719;SDS011;32452;51.382;-0.002;2023-04-24T04:01:14;31.80;;;20.40;;
46719;SDS011;32452;51.382;-0.002;2023-04-24T04:04:01;38.97;;;21.73;;
46719;SDS011;32452;51.382;-0.002;2023-04-24T04:06:47;31.52;;;19.65;;
46719;SDS011;32452;51.382;-0.002;2023-04-24T04:09:33;31.73;;;19.42;;
46719;SDS011;32452;51.382;-0.002;2023-04-24T04:12:19;32.35;;;19.35;;
46719;SDS011;32452;51.382;-0.002;2023-04-24T04:15:04;33.13;;;19.05;;
46719;SDS011;32452;51.382;-0.002;2023-04-24T04:17:51;32.67;;;19.15;;
46719;SDS011;32452;51.382;-0.002;2023-04-24T04:20:37;36.25;;;19.17;;
46719;SDS011;32452;51.382;-0.002;2023-04-24T04:23:23;31.17;;;20.30;;
46719;SDS011;32452;51.382;-0.002;2023-04-24T04:26:08;32.25;;;20.13;;
46719;SDS011;32452;51.382;-0.002;2023-04-24T04:28:53;30.20;;;18.27;;
46719;SDS011;32452;51.382;-0.002;2023-04-24T04:31:39;30.75;;;18.98;;
46719;SDS011;32452;51.382;-0.002;2023-04-24T04:34:25;30.20;;;18.00;;
46719;SDS011;32452;51.382;-0.002;2023-04-24T04:37:11;31.90;;;19.73;;
46719;SDS011;32452;51.382;-0.002;2023-04-24T04:39:59;33.28;;;18.88;;
46719;SDS011;32452;51.382;-0.002;2023-04-24T04:42:46;30.50;;;19.02;;
46719;SDS011;32452;51.382;-0.002;2023-04-24T04:45:32;28.45;;;18.58;;
46719;SDS011;32452;51.382;-0.002;2023-04-24T04:48:19;36.33;;;19.40;;
46719;SDS011;32452;51.382;-0.002;2023-04-24T04:51:05;31.15;;;18.80;;
46719;SDS011;32452;51.382;-0.002;2023-04-24T04:53:50;31.55;;;19.80;;
46719;SDS011;32452;51.382;-0.002;2023-04-24T04:56:36;36.30;;;20.63;;
46719;SDS011;32452;51.382;-0.002;2023-04-24T04:59:21;37.70;;;21.50;;
46719;SDS011;32452;51.382;-0.002;2023-04-24T05:02:07;33.25;;;19.13;;
46719;SDS011;32452;51.382;-0.002;2023-04-24T05:04:53;33.90;;;20.67;;
46719;SDS011;32452;51.382;-0.002;2023-04-24T05:07:38;35.65;;;21.52;;
46719;SDS011;32452;51.382;-0.002;2023-04-24T05:10:24;32.35;;;20.58;;
46719;SDS011;32452;51.382;-0.002;2023-04-24T05:13:10;33.08;;;19.60;;
46719;SDS011;32452;51.382;-0.002;2023-04-24T05:15:57;32.17;;;19.52;;
46719;SDS011;32452;51.382;-0.002;2023-04-24T05:18:43;33.40;;;19.13;;
46719;SDS011;32452;51.382;-0.002;2023-04-24T05:21:29;32.40;;;19.63;;
46719;SDS011;32452;51.382;-0.002;2023-04-24T05:24:15;37.20;;;20.92;;
46719;SDS011;32452;51.382;-0.002;2023-04-24T05:27:04;32.55;;;19.70;;
46719;SDS011;32452;51.382;-0.002;2023-04-24T05:29:50;37.70;;;20.30;;
46719;SDS011;32452;51.382;-0.002;2023-04-24T05:32:35;33.38;;;19.50;;
46719;SDS011;32452;51.382;-0.002;2023-04-24T05:35:21;32.97;;;19.85;;
46719;SDS011;32452;51.382;-0.002;2023-04-24T05:38:06;35.42;;;19.60;;
46719;SDS011;32452;51.382;-0.002;2023-04-24T05:40:52;30.00;;;19.23;;
46719;SDS011;32452;51.382;-0.002;2023-04-24T05:43:37;32.58;;;19.10;;
46719;SDS011;32452;51.382;-0.002;2023-04-24T05:46:23;33.28;;;19.40;;
46719;SDS011;32452;51.382;-0.002;2023-04-24T05:49:08;35.70;;;19.52;;
46719;SDS011;32452;51.382;-0.002;2023-04-24T05:51:54;32.80;;;18.00;;
46719;SDS011;32452;51.382;-0.002;2023-04-24T05:54:39;34.45;;;18.70;;
46719;SDS011;32452;51.382;-0.002;2023-04-24T05:57:25;30.92;;;18.08;;
46719;SDS011;32452;51.382;-0.002;2023-04-24T06:00:11;31.13;;;19.33;;
46719;SDS011;32452;51.382;-0.002;2023-04-24T06:02:57;30.35;;;17.98;;
46719;SDS011;32452;51.382;-0.002;2023-04-24T06:05:43;30.00;;;18.05;;
46719;SDS011;32452;51.382;-0.002;2023-04-24T06:08:28;30.17;;;17.80;;
46719;SDS011;32452;51.382;-0.002;2023-04-24T06:11:13;30.65;;;18.98;;
46719;SDS011;32452;51.382;-0.002;2023-04-24T06:13:59;31.50;;;17.30;;
46719;SDS011;32452;51.382;-0.002;2023-04-24T06:16:44;29.77;;;18.20;;
46719;SDS011;32452;51.382;-0.002;2023-04-24T06:19:33;29.02;;;16.92;;
46719;SDS011;32452;51.382;-0.002;2023-04-24T06:22:19;31.30;;;18.98;;
46719;SDS011;32452;51.382;-0.002;2023-04-24T06:25:05;33.58;;;18.85;;
46719;SDS011;32452;51.382;-0.002;2023-04-24T06:27:52;31.60;;;18.13;;
46719;SDS011;32452;51.382;-0.002;2023-04-24T06:30:37;27.17;;;17.35;;
46719;SDS011;32452;51.382;-0.002;2023-04-24T06:33:23;28.30;;;16.45;;
46719;SDS011;32452;51.382;-0.002;2023-04-24T06:36:09;33.13;;;17.48;;
46719;SDS011;32452;51.382;-0.002;2023-04-24T06:38:55;29.52;;;17.10;;
46719;SDS011;32452;51.382;-0.002;2023-04-24T06:41:41;27.20;;;15.82;;
46719;SDS011;32452;51.382;-0.002;2023-04-24T06:44:26;26.70;;;16.70;;
46719;SDS011;32452;51.382;-0.002;2023-04-24T06:47:12;24.52;;;15.07;;
46719;SDS011;32452;51.382;-0.002;2023-04-24T06:50:00;23.20;;;14.85;;
46719;SDS011;32452;51.382;-0.002;2023-04-24T06:52:46;23.05;;;14.15;;
46719;SDS011;32452;51.382;-0.002;2023-04-24T06:55:31;22.13;;;11.50;;
46719;SDS011;32452;51.382;-0.002;2023-04-24T06:58:17;21.35;;;11.55;;
46719;SDS011;32452;51.382;-0.002;2023-04-24T07:01:03;26.27;;;10.88;;
46719;SDS011;32452;51.382;-0.002;2023-04-24T07:03:48;15.15;;;7.40;;
46719;SDS011;32452;51.382;-0.002;2023-04-24T07:06:34;17.73;;;6.97;;
46719;SDS011;32452;51.382;-0.002;2023-04-24T07:09:21;14.13;;;5.72;;
46719;SDS011;32452;51.382;-0.002;2023-04-24T07:12:08;14.13;;;4.78;;
46719;SDS011;32452;51.382;-0.002;2023-04-24T07:14:55;16.13;;;4.75;;
46719;SDS011;32452;51.382;-0.002;2023-04-24T07:17:40;13.02;;;4.97;;
46719;SDS011;32452;51.382;-0.002;2023-04-24T07:20:28;11.23;;;4.35;;
46719;SDS011;32452;51.382;-0.002;2023-04-24T07:23:14;13.05;;;4.53;;
46719;SDS011;32452;51.382;-0.002;2023-04-24T07:26:00;12.43;;;4.22;;
46719;SDS011;32452;51.382;-0.002;2023-04-24T07:28:45;12.05;;;4.40;;
46719;SDS011;32452;51.382;-0.002;2023-04-24T07:31:32;13.55;;;3.70;;
46719;SDS011;32452;51.382;-0.002;2023-04-24T07:34:17;8.48;;;3.30;;
46719;SDS011;32452;51.382;-0.002;2023-04-24T07:37:03;10.85;;;3.65;;
46719;SDS011;32452;51.382;-0.002;2023-04-24T07:39:49;15.90;;;3.88;;
46719;SDS011;32452;51.382;-0.002;2023-04-24T07:42:35;9.65;;;3.63;;
46719;SDS011;32452;51.382;-0.002;2023-04-24T07:45:21;8.55;;;3.40;;
46719;SDS011;32452;51.382;-0.002;2023-04-24T07:48:08;10.13;;;3.58;;
46719;SDS011;32452;51.382;-0.002;2023-04-24T07:50:54;10.48;;;3.20;;
46719;SDS011;32452;51.382;-0.002;2023-04-24T07:53:39;8.73;;;3.25;;
46719;SDS011;32452;51.382;-0.002;2023-04-24T07:56:25;9.68;;;2.88;;
46719;SDS011;32452;51.382;-0.002;2023-04-24T07:59:11;8.75;;;3.35;;
46719;SDS011;32452;51.382;-0.002;2023-04-24T08:01:57;9.82;;;3.20;;
46719;SDS011;32452;51.382;-0.002;2023-04-24T08:04:42;9.48;;;2.80;;
46719;SDS011;32452;51.382;-0.002;2023-04-24T08:07:28;11.38;;;2.63;;
46719;SDS011;32452;51.382;-0.002;2023-04-24T08:10:14;10.10;;;3.63;;
46719;SDS011;32452;51.382;-0.002;2023-04-24T08:13:00;11.00;;;3.08;;
46719;SDS011;32452;51.382;-0.002;2023-04-24T08:15:45;8.45;;;2.50;;
46719;SDS011;32452;51.382;-0.002;2023-04-24T08:18:31;5.38;;;2.38;;
46719;SDS011;32452;51.382;-0.002;2023-04-24T08:21:16;6.43;;;2.50;;
46719;SDS011;32452;51.382;-0.002;2023-04-24T08:24:03;7.57;;;3.15;;
46719;SDS011;32452;51.382;-0.002;2023-04-24T08:26:53;6.50;;;2.50;;
46719;SDS011;32452;51.382;-0.002;2023-04-24T08:29:39;8.93;;;3.40;;
46719;SDS011;32452;51.382;-0.002;2023-04-24T08:32:25;7.55;;;3.03;;
46719;SDS011;32452;51.382;-0.002;2023-04-24T08:35:14;7.57;;;2.72;;
46719;SDS011;32452;51.382;-0.002;2023-04-24T08:38:00;8.35;;;2.58;;
46719;SDS011;32452;51.382;-0.002;2023-04-24T08:40:46;6.38;;;2.85;;
46719;SDS011;32452;51.382;-0.002;2023-04-24T08:43:34;9.30;;;3.47;;
46719;SDS011;32452;51.382;-0.002;2023-04-24T08:46:21;10.73;;;3.58;;
46719;SDS011;32452;51.382;-0.002;2023-04-24T08:49:07;9.73;;;3.88;;
46719;SDS011;32452;51.382;-0.002;2023-04-24T08:51:53;8.90;;;3.58;;
46719;SDS011;32452;51.382;-0.002;2023-04-24T08:54:39;10.02;;;3.75;;
46719;SDS011;32452;51.382;-0.002;2023-04-24T08:57:28;12.05;;;4.63;;
46719;SDS011;32452;51.382;-0.002;2023-04-24T09:00:15;11.40;;;3.67;;
46719;SDS011;32452;51.382;-0.002;2023-04-24T09:03:01;10.63;;;3.90;;
46719;SDS011;32452;51.382;-0.002;2023-04-24T09:05:49;8.10;;;3.30;;
46719;SDS011;32452;51.382;-0.002;2023-04-24T09:08:35;11.40;;;4.45;;
46719;SDS011;32452;51.382;-0.002;2023-04-24T09:11:21;12.68;;;4.50;;
46719;SDS011;32452;51.382;-0.002;2023-04-24T09:14:09;11.80;;;4.70;;
46719;SDS011;32452;51.382;-0.002;2023-04-24T09:16:55;9.73;;;4.13;;
46719;SDS011;32452;51.382;-0.002;2023-04-24T09:19:41;8.40;;;3.75;;
46719;SDS011;32452;51.382;-0.002;2023-04-24T09:22:31;8.48;;;3.40;;
46719;SDS011;32452;51.382;-0.002;2023-04-24T09:25:16;10.45;;;3.40;;
46719;SDS011;32452;51.382;-0.002;2023-04-24T09:28:03;9.32;;;3.95;;
46719;SDS011;32452;51.382;-0.002;2023-04-24T09:31:01;10.20;;;4.03;;
46719;SDS011;32452;51.382;-0.002;2023-04-24T09:33:58;10.75;;;3.85;;
46719;SDS011;32452;51.382;-0.002;2023-04-24T09:36:51;8.80;;;3.67;;
46719;SDS011;32452;51.382;-0.002;2023-04-24T09:39:37;10.75;;;3.83;;
46719;SDS011;32452;51.382;-0.002;2023-04-24T09:42:23;8.35;;;3.03;;
46719;SDS011;32452;51.382;-0.002;2023-04-24T09:45:13;11.13;;;4.47;;
46719;SDS011;32452;51.382;-0.002;2023-04-24T09:48:01;9.43;;;3.78;;
46719;SDS011;32452;51.382;-0.002;2023-04-24T09:50:46;8.45;;;3.40;;
46719;SDS011;32452;51.382;-0.002;2023-04-24T09:53:32;12.38;;;5.18;;
46719;SDS011;32452;51.382;-0.002;2023-04-24T09:56:18;7.57;;;3.47;;
46719;SDS011;32452;51.382;-0.002;2023-04-24T09:59:05;7.97;;;3.75;;
46719;SDS011;32452;51.382;-0.002;2023-04-24T10:01:51;8.07;;;3.83;;
46719;SDS011;32452;51.382;-0.002;2023-04-24T10:04:37;10.50;;;4.15;;
46719;SDS011;32452;51.382;-0.002;2023-04-24T10:07:25;10.85;;;4.13;;
46719;SDS011;32452;51.382;-0.002;2023-04-24T10:10:11;10.02;;;3.95;;
46719;SDS011;32452;51.382;-0.002;2023-04-24T10:12:56;10.18;;;3.42;;
46719;SDS011;32452;51.382;-0.002;2023-04-24T10:15:42;8.30;;;3.30;;
46719;SDS011;32452;51.382;-0.002;2023-04-24T10:18:28;15.20;;;5.63;;
46719;SDS011;32452;51.382;-0.002;2023-04-24T10:21:16;8.48;;;4.25;;
46719;SDS011;32452;51.382;-0.002;2023-04-24T10:24:02;11.90;;;4.35;;
46719;SDS011;32452;51.382;-0.002;2023-04-24T10:26:49;13.13;;;4.65;;
46719;SDS011;32452;51.382;-0.002;2023-04-24T10:29:35;8.48;;;3.78;;
46719;SDS011;32452;51.382;-0.002;2023-04-24T10:32:23;9.85;;;3.95;;
46719;SDS011;32452;51.382;-0.002;2023-04-24T10:35:09;10.48;;;3.97;;
46719;SDS011;32452;51.382;-0.002;2023-04-24T10:37:58;7.60;;;3.58;;
46719;SDS011;32452;51.382;-0.002;2023-04-24T10:40:48;11.70;;;4.57;;
46719;SDS011;32452;51.382;-0.002;2023-04-24T10:43:33;16.25;;;3.60;;
46719;SDS011;32452;51.382;-0.002;2023-04-24T10:46:20;12.80;;;4.43;;
46719;SDS011;32452;51.382;-0.002;2023-04-24T10:49:08;13.57;;;4.13;;
46719;SDS011;32452;51.382;-0.002;2023-04-24T10:51:54;11.18;;;4.20;;
46719;SDS011;32452;51.382;-0.002;2023-04-24T10:54:46;10.70;;;4.47;;
46719;SDS011;32452;51.382;-0.002;2023-04-24T10:57:32;11.15;;;3.67;;
46719;SDS011;32452;51.382;-0.002;2023-04-24T11:00:21;11.82;;;4.20;;
46719;SDS011;32452;51.382;-0.002;2023-04-24T11:03:09;10.20;;;4.30;;
46719;SDS011;32452;51.382;-0.002;2023-04-24T11:06:14;16.25;;;4.65;;
46719;SDS011;32452;51.382;-0.002;2023-04-24T11:09:07;13.77;;;4.32;;
46719;SDS011;32452;51.382;-0.002;2023-04-24T11:12:07;10.93;;;3.65;;
46719;SDS011;32452;51.382;-0.002;2023-04-24T11:17:43;8.32;;;3.75;;
46719;SDS011;32452;51.382;-0.002;2023-04-24T11:20:29;8.93;;;4.15;;
46719;SDS011;32452;51.382;-0.002;2023-04-24T11:23:15;13.30;;;3.90;;
46719;SDS011;32452;51.382;-0.002;2023-04-24T11:26:10;9.30;;;4.18;;
46719;SDS011;32452;51.382;-0.002;2023-04-24T11:29:06;10.90;;;4.65;;
46719;SDS011;32452;51.382;-0.002;2023-04-24T11:31:52;11.75;;;4.13;;
46719;SDS011;32452;51.382;-0.002;2023-04-24T11:34:38;11.05;;;4.38;;
46719;SDS011;32452;51.382;-0.002;2023-04-24T11:37:26;9.48;;;4.43;;
46719;SDS011;32452;51.382;-0.002;2023-04-24T11:40:13;12.35;;;4.90;;
46719;SDS011;32452;51.382;-0.002;2023-04-24T11:43:04;12.43;;;4.78;;
46719;SDS011;32452;51.382;-0.002;2023-04-24T11:45:51;8.85;;;4.40;;
46719;SDS011;32452;51.382;-0.002;2023-04-24T11:48:37;12.30;;;4.53;;
46719;SDS011;32452;51.382;-0.002;2023-04-24T11:51:26;10.57;;;4.00;;
46719;SDS011;32452;51.382;-0.002;2023-04-24T11:54:20;11.68;;;5.40;;
46719;SDS011;32452;51.382;-0.002;2023-04-24T11:57:06;9.95;;;4.40;;
46719;SDS011;32452;51.382;-0.002;2023-04-24T11:59:52;13.00;;;5.03;;
46719;SDS011;32452;51.382;-0.002;2023-04-24T12:02:38;10.60;;;4.60;;
46719;SDS011;32452;51.382;-0.002;2023-04-24T12:05:25;9.52;;;4.90;;
46719;SDS011;32452;51.382;-0.002;2023-04-24T12:08:27;12.60;;;5.13;;
46719;SDS011;32452;51.382;-0.002;2023-04-24T12:11:15;11.27;;;5.40;;
46719;SDS011;32452;51.382;-0.002;2023-04-24T12:14:09;16.08;;;5.55;;
46719;SDS011;32452;51.382;-0.002;2023-04-24T12:16:56;11.90;;;5.22;;
46719;SDS011;32452;51.382;-0.002;2023-04-24T12:19:48;11.32;;;5.93;;
46719;SDS011;32452;51.382;-0.002;2023-04-24T12:25:33;11.93;;;4.88;;
46719;SDS011;32452;51.382;-0.002;2023-04-24T12:28:21;10.40;;;5.00;;
46719;SDS011;32452;51.382;-0.002;2023-04-24T12:31:07;11.52;;;4.80;;
46719;SDS011;32452;51.382;-0.002;2023-04-24T12:33:53;13.05;;;5.00;;
46719;SDS011;32452;51.382;-0.002;2023-04-24T12:36:40;12.02;;;5.22;;
46719;SDS011;32452;51.382;-0.002;2023-04-24T12:39:25;16.77;;;5.88;;
46719;SDS011;32452;51.382;-0.002;2023-04-24T12:42:11;11.90;;;6.32;;
46719;SDS011;32452;51.382;-0.002;2023-04-24T12:44:59;11.10;;;4.90;;
46719;SDS011;32452;51.382;-0.002;2023-04-24T12:47:51;11.10;;;5.55;;
46719;SDS011;32452;51.382;-0.002;2023-04-24T12:50:37;14.00;;;5.28;;
46719;SDS011;32452;51.382;-0.002;2023-04-24T12:53:23;9.93;;;4.45;;
46719;SDS011;32452;51.382;-0.002;2023-04-24T12:56:11;13.00;;;4.97;;
46719;SDS011;32452;51.382;-0.002;2023-04-24T12:58:56;13.43;;;5.13;;
46719;SDS011;32452;51.382;-0.002;2023-04-24T13:01:42;12.00;;;5.05;;
46719;SDS011;32452;51.382;-0.002;2023-04-24T13:04:28;11.95;;;5.75;;
46719;SDS011;32452;51.382;-0.002;2023-04-24T13:07:14;11.15;;;5.30;;
46719;SDS011;32452;51.382;-0.002;2023-04-24T13:10:00;13.32;;;5.65;;
46719;SDS011;32452;51.382;-0.002;2023-04-24T13:12:46;11.73;;;5.45;;
46719;SDS011;32452;51.382;-0.002;2023-04-24T13:15:31;14.82;;;5.53;;
46719;SDS011;32452;51.382;-0.002;2023-04-24T13:18:17;9.43;;;4.80;;
46719;SDS011;32452;51.382;-0.002;2023-04-24T13:21:03;11.40;;;5.20;;
46719;SDS011;32452;51.382;-0.002;2023-04-24T13:23:49;10.20;;;4.97;;
46719;SDS011;32452;51.382;-0.002;2023-04-24T13:26:35;10.88;;;5.30;;
46719;SDS011;32452;51.382;-0.002;2023-04-24T13:29:21;10.50;;;4.90;;
46719;SDS011;32452;51.382;-0.002;2023-04-24T13:32:07;10.20;;;4.93;;
46719;SDS011;32452;51.382;-0.002;2023-04-24T13:34:54;11.40;;;4.90;;
46719;SDS011;32452;51.382;-0.002;2023-04-24T13:37:39;10.20;;;4.90;;
46719;SDS011;32452;51.382;-0.002;2023-04-24T13:40:25;11.57;;;4.97;;
46719;SDS011;32452;51.382;-0.002;2023-04-24T13:43:11;12.38;;;5.55;;
46719;SDS011;32452;51.382;-0.002;2023-04-24T13:45:57;10.20;;;4.78;;
46719;SDS011;32452;51.382;-0.002;2023-04-24T13:48:44;11.15;;;5.00;;
46719;SDS011;32452;51.382;-0.002;2023-04-24T13:51:33;12.98;;;5.35;;
46719;SDS011;32452;51.382;-0.002;2023-04-24T13:54:18;13.55;;;5.28;;
46719;SDS011;32452;51.382;-0.002;2023-04-24T13:57:04;12.23;;;5.32;;
46719;SDS011;32452;51.382;-0.002;2023-04-24T13:59:50;10.05;;;5.40;;
46719;SDS011;32452;51.382;-0.002;2023-04-24T14:02:36;11.13;;;5.45;;
46719;SDS011;32452;51.382;-0.002;2023-04-24T14:05:22;12.13;;;5.28;;
46719;SDS011;32452;51.382;-0.002;2023-04-24T14:08:08;12.82;;;4.80;;
46719;SDS011;32452;51.382;-0.002;2023-04-24T14:10:53;10.93;;;4.78;;
46719;SDS011;32452;51.382;-0.002;2023-04-24T14:13:40;11.05;;;4.75;;
46719;SDS011;32452;51.382;-0.002;2023-04-24T14:16:27;8.60;;;4.57;;
46719;SDS011;32452;51.382;-0.002;2023-04-24T14:19:14;9.60;;;4.80;;
46719;SDS011;32452;51.382;-0.002;2023-04-24T14:22:02;9.05;;;4.25;;
46719;SDS011;32452;51.382;-0.002;2023-04-24T14:24:48;10.27;;;4.70;;
46719;SDS011;32452;51.382;-0.002;2023-04-24T14:27:33;9.35;;;4.47;;
46719;SDS011;32452;51.382;-0.002;2023-04-24T14:30:19;9.88;;;4.90;;
46719;SDS011;32452;51.382;-0.002;2023-04-24T14:33:06;8.65;;;4.68;;
46719;SDS011;32452;51.382;-0.002;2023-04-24T14:35:52;10.63;;;4.60;;
46719;SDS011;32452;51.382;-0.002;2023-04-24T14:38:37;11.50;;;5.15;;
46719;SDS011;32452;51.382;-0.002;2023-04-24T14:41:23;8.38;;;4.68;;
46719;SDS011;32452;51.382;-0.002;2023-04-24T14:44:09;9.32;;;4.55;;
46719;SDS011;32452;51.382;-0.002;2023-04-24T14:46:59;11.13;;;4.18;;
46719;SDS011;32452;51.382;-0.002;2023-04-24T14:49:45;10.02;;;4.45;;
46719;SDS011;32452;51.382;-0.002;2023-04-24T14:52:32;8.27;;;4.00;;
46719;SDS011;32452;51.382;-0.002;2023-04-24T14:55:18;10.38;;;4.15;;
46719;SDS011;32452;51.382;-0.002;2023-04-24T14:58:05;10.13;;;5.07;;
46719;SDS011;32452;51.382;-0.002;2023-04-24T15:00:51;8.43;;;4.28;;
46719;SDS011;32452;51.382;-0.002;2023-04-24T15:03:39;13.07;;;3.72;;
46719;SDS011;32452;51.382;-0.002;2023-04-24T15:06:25;9.95;;;4.03;;
46719;SDS011;32452;51.382;-0.002;2023-04-24T15:09:15;10.35;;;3.85;;
46719;SDS011;32452;51.382;-0.002;2023-04-24T15:12:02;9.90;;;4.55;;
46719;SDS011;32452;51.382;-0.002;2023-04-24T15:14:54;11.98;;;4.05;;
46719;SDS011;32452;51.382;-0.002;2023-04-24T15:17:50;13.88;;;4.47;;
46719;SDS011;32452;51.382;-0.002;2023-04-24T15:20:36;6.65;;;3.10;;
46719;SDS011;32452;51.382;-0.002;2023-04-24T15:23:24;4.60;;;2.78;;
46719;SDS011;32452;51.382;-0.002;2023-04-24T15:26:09;4.38;;;2.45;;
46719;SDS011;32452;51.382;-0.002;2023-04-24T15:28:55;6.10;;;2.72;;
46719;SDS011;32452;51.382;-0.002;2023-04-24T15:31:40;9.23;;;3.10;;
46719;SDS011;32452;51.382;-0.002;2023-04-24T15:34:26;10.95;;;3.83;;
46719;SDS011;32452;51.382;-0.002;2023-04-24T15:37:12;8.05;;;4.20;;
46719;SDS011;32452;51.382;-0.002;2023-04-24T15:39:57;10.82;;;3.95;;
46719;SDS011;32452;51.382;-0.002;2023-04-24T15:42:44;12.20;;;5.47;;
46719;SDS011;32452;51.382;-0.002;2023-04-24T15:45:30;8.52;;;4.68;;
46719;SDS011;32452;51.382;-0.002;2023-04-24T15:48:18;8.70;;;4.40;;
46719;SDS011;32452;51.382;-0.002;2023-04-24T15:51:04;8.02;;;4.50;;
46719;SDS011;32452;51.382;-0.002;2023-04-24T15:53:49;9.60;;;5.13;;
46719;SDS011;32452;51.382;-0.002;2023-04-24T15:56:35;8.43;;;4.32;;
46719;SDS011;32452;51.382;-0.002;2023-04-24T15:59:21;6.82;;;4.20;;
46719;SDS011;32452;51.382;-0.002;2023-04-24T16:02:08;8.10;;;4.45;;
46719;SDS011;32452;51.382;-0.002;2023-04-24T16:04:56;8.55;;;4.35;;
46719;SDS011;32452;51.382;-0.002;2023-04-24T16:07:42;6.72;;;3.90;;
46719;SDS011;32452;51.382;-0.002;2023-04-24T16:10:27;7.85;;;4.35;;
46719;SDS011;32452;51.382;-0.002;2023-04-24T16:13:17;8.18;;;4.32;;
46719;SDS011;32452;51.382;-0.002;2023-04-24T16:16:02;7.43;;;4.22;;
46719;SDS011;32452;51.382;-0.002;2023-04-24T16:18:48;7.43;;;3.72;;